createdAt,value
2018-02-09T00:00:32.222Z,99.74
2018-02-09T00:01:32.465Z,99.74
2018-02-09T00:02:32.437Z,99.99
2018-02-09T00:03:32.420Z,99.84
2018-02-09T00:04:32.404Z,99.93
2018-02-09T00:05:32.376Z,99.93
2018-02-09T00:06:32.362Z,99.46
2018-02-09T00:07:32.345Z,99.46
2018-02-09T00:08:32.067Z,99.93
2018-02-09T00:09:32.046Z,99.93
2018-02-09T00:10:32.029Z,99.65
2018-02-09T00:11:32.017Z,99.84
2018-02-09T00:12:32.241Z,99.99
2018-02-09T00:13:32.222Z,99.99
2018-02-09T00:14:32.208Z,99.84
2018-02-09T00:15:32.185Z,99.84
2018-02-09T00:16:31.912Z,99.65
2018-02-09T00:17:32.154Z,99.99
2018-02-09T00:18:32.132Z,99.93
2018-02-09T00:19:31.859Z,99.84
2018-02-09T00:20:31.834Z,99.99
2018-02-09T00:21:32.075Z,99.99
2018-02-09T00:22:32.049Z,99.93
2018-02-09T00:23:32.033Z,99.84
2018-02-09T00:24:32.018Z,99.55
2018-02-09T00:25:31.740Z,99.74
2018-02-09T00:26:31.988Z,99.84
2018-02-09T00:27:32.236Z,99.93
2018-02-09T00:28:31.680Z,99.74
2018-02-09T00:29:31.916Z,99.74
2018-02-09T00:30:31.901Z,99.74
2018-02-09T00:31:31.876Z,99.74
2018-02-09T00:32:31.859Z,99.65
2018-02-09T00:33:31.840Z,99.93
2018-02-09T00:34:31.568Z,99.93
2018-02-09T00:35:31.546Z,99.84
2018-02-09T00:36:31.526Z,99.27
2018-02-09T00:37:31.763Z,99.74
2018-02-09T00:38:31.490Z,99.93
2018-02-09T00:39:31.504Z,99.93
2018-02-09T00:40:31.703Z,99.55
2018-02-09T00:41:31.686Z,99.46
2018-02-09T00:42:31.668Z,99.84
2018-02-09T00:43:31.652Z,99.55
2018-02-09T00:44:31.630Z,99.74
2018-02-09T00:45:31.611Z,99.84
2018-02-09T00:46:31.587Z,99.84
2018-02-09T00:47:31.571Z,99.74
2018-02-09T00:48:31.551Z,99.74
2018-02-09T00:49:31.532Z,99.93
2018-02-09T00:50:31.517Z,99.55
2018-02-09T00:51:31.490Z,99.46
2018-02-09T00:52:31.473Z,99.55
2018-02-09T00:53:31.455Z,99.84
2018-02-09T00:54:31.438Z,99.93
2018-02-09T00:55:31.413Z,99.46
2018-02-09T00:56:31.142Z,99.84
2018-02-09T00:57:31.372Z,99.74
2018-02-09T00:58:31.654Z,99.99
2018-02-09T00:59:31.341Z,99.99
2018-02-09T01:00:31.314Z,99.84
2018-02-09T01:01:31.299Z,99.99
2018-02-09T01:02:31.279Z,99.99
2018-02-09T01:03:31.261Z,99.74
2018-02-09T01:04:31.240Z,99.84
2018-02-09T01:05:31.236Z,99.55
2018-02-09T01:06:30.949Z,99.84
2018-02-09T01:07:31.199Z,99.99
2018-02-09T01:08:30.908Z,99.99
2018-02-09T01:09:31.160Z,99.99
2018-02-09T01:10:31.131Z,99.99
2018-02-09T01:11:31.103Z,99.99
2018-02-09T01:12:31.083Z,99.99
2018-02-09T01:13:31.069Z,99.99
2018-02-09T01:14:31.047Z,99.84
2018-02-09T01:15:31.027Z,99.84
2018-02-09T01:16:31.024Z,99.55
2018-02-09T01:17:30.735Z,99.46
2018-02-09T01:18:30.966Z,99.46
2018-02-09T01:19:31.012Z,99.46
2018-02-09T01:20:30.932Z,99.65
2018-02-09T01:21:30.915Z,99.46
2018-02-09T01:22:30.892Z,99.65
2018-02-09T01:23:30.869Z,99.99
2018-02-09T01:24:30.858Z,99.99
2018-02-09T01:25:30.581Z,99.99
2018-02-09T01:26:30.816Z,99.99
2018-02-09T01:27:30.794Z,99.99
2018-02-09T01:28:30.829Z,99.93
2018-02-09T01:29:30.760Z,99.99
2018-02-09T01:30:30.737Z,99.99
2018-02-09T01:31:30.718Z,99.99
2018-02-09T01:32:30.699Z,99.98
2018-02-09T01:33:30.676Z,99.99
2018-02-09T01:34:30.662Z,99.99
2018-02-09T01:35:30.647Z,99.99
2018-02-09T01:36:30.619Z,99.99
2018-02-09T01:37:30.601Z,99.98
2018-02-09T01:38:30.582Z,99.99
2018-02-09T01:39:30.562Z,99.99
2018-02-09T01:40:30.540Z,99.99
2018-02-09T01:41:30.521Z,99.99
2018-02-09T01:42:30.504Z,99.99
2018-02-09T01:43:30.486Z,99.99
2018-02-09T01:44:30.466Z,99.99
2018-02-09T01:45:30.444Z,99.99
2018-02-09T01:46:30.427Z,99.99
2018-02-09T01:47:30.404Z,99.99
2018-02-09T01:48:30.423Z,99.99
2018-02-09T01:49:30.370Z,99.99
2018-02-09T01:50:30.351Z,99.99
2018-02-09T01:51:30.331Z,99.99
2018-02-09T01:52:30.309Z,99.99
2018-02-09T01:53:30.297Z,99.99
2018-02-09T01:54:30.271Z,99.79
2018-02-09T01:55:29.996Z,99.99
2018-02-09T01:56:30.229Z,99.99
2018-02-09T01:57:30.212Z,99.99
2018-02-09T01:58:30.191Z,99.99
2018-02-09T01:59:30.172Z,99.99
2018-02-09T02:00:29.899Z,99.99
2018-02-09T02:01:29.878Z,99.99
2018-02-09T02:02:30.113Z,99.99
2018-02-09T02:03:30.091Z,99.99
2018-02-09T02:04:30.077Z,99.99
2018-02-09T02:05:30.055Z,99.99
2018-02-09T02:06:29.780Z,99.99
2018-02-09T02:07:30.019Z,99.99
2018-02-09T02:08:29.997Z,99.99
2018-02-09T02:09:29.978Z,99.99
2018-02-09T02:10:29.956Z,99.99
2018-02-09T02:11:29.934Z,99.99
2018-02-09T02:12:29.915Z,99.99
2018-02-09T02:13:29.895Z,99.99
2018-02-09T02:14:29.880Z,99.99
2018-02-09T02:15:29.865Z,99.99
2018-02-09T02:16:29.586Z,99.99
2018-02-09T02:17:29.820Z,99.99
2018-02-09T02:18:29.808Z,99.99
2018-02-09T02:19:29.782Z,99.99
2018-02-09T02:20:29.761Z,99.99
2018-02-09T02:21:29.741Z,99.88
2018-02-09T02:22:29.721Z,99.99
2018-02-09T02:23:29.700Z,99.99
2018-02-09T02:24:29.682Z,99.88
2018-02-09T02:25:29.660Z,99.99
2018-02-09T02:26:29.653Z,99.99
2018-02-09T02:27:29.623Z,99.99
2018-02-09T02:28:29.601Z,99.98
2018-02-09T02:29:29.586Z,99.99
2018-02-09T02:30:29.317Z,99.99
2018-02-09T02:31:29.547Z,99.99
2018-02-09T02:32:29.525Z,99.99
2018-02-09T02:33:29.527Z,99.88
2018-02-09T02:34:29.233Z,99.99
2018-02-09T02:35:29.468Z,99.88
2018-02-09T02:36:29.468Z,99.98
2018-02-09T02:37:29.436Z,99.99
2018-02-09T02:38:29.410Z,99.99
2018-02-09T02:39:29.391Z,99.98
2018-02-09T02:40:29.373Z,99.99
2018-02-09T02:41:29.098Z,99.99
2018-02-09T02:42:29.330Z,99.99
2018-02-09T02:43:29.314Z,99.99
2018-02-09T02:44:29.293Z,99.99
2018-02-09T02:45:29.020Z,99.99
2018-02-09T02:46:29.251Z,99.99
2018-02-09T02:47:29.230Z,99.99
2018-02-09T02:48:29.217Z,99.98
2018-02-09T02:49:29.198Z,99.98
2018-02-09T02:50:29.173Z,99.99
2018-02-09T02:51:29.153Z,99.99
2018-02-09T02:52:29.134Z,99.99
2018-02-09T02:53:29.122Z,99.98
2018-02-09T02:54:28.844Z,99.98
2018-02-09T02:55:29.083Z,99.98
2018-02-09T02:56:29.057Z,99.98
2018-02-09T02:57:29.036Z,99.88
2018-02-09T02:58:29.020Z,99.98
2018-02-09T02:59:29.001Z,99.99
2018-02-09T03:00:28.978Z,99.99
2018-02-09T03:01:28.967Z,99.99
2018-02-09T03:02:28.940Z,99.99
2018-02-09T03:03:29.221Z,99.99
2018-02-09T03:04:28.897Z,99.99
2018-02-09T03:05:28.938Z,99.99
2018-02-09T03:06:28.612Z,99.99
2018-02-09T03:07:28.838Z,99.99
2018-02-09T03:08:28.824Z,99.99
2018-02-09T03:09:28.802Z,99.99
2018-02-09T03:10:28.784Z,99.99
2018-02-09T03:11:28.764Z,99.99
2018-02-09T03:12:28.745Z,99.99
2018-02-09T03:13:28.723Z,99.99
2018-02-09T03:14:28.451Z,99.99
2018-02-09T03:15:28.685Z,99.99
2018-02-09T03:16:28.670Z,99.79
2018-02-09T03:17:28.392Z,99.99
2018-02-09T03:18:28.624Z,99.99
2018-02-09T03:19:28.354Z,99.99
2018-02-09T03:20:28.586Z,99.99
2018-02-09T03:21:28.315Z,99.98
2018-02-09T03:22:28.548Z,99.98
2018-02-09T03:23:28.528Z,99.98
2018-02-09T03:24:28.253Z,99.99
2018-02-09T03:25:28.498Z,99.98
2018-02-09T03:26:28.469Z,99.99
2018-02-09T03:27:28.448Z,99.99
2018-02-09T03:28:28.177Z,99.99
2018-02-09T03:29:28.158Z,99.99
2018-02-09T03:30:28.406Z,99.98
2018-02-09T03:31:28.370Z,99.69
2018-02-09T03:32:28.096Z,99.98
2018-02-09T03:33:28.078Z,99.99
2018-02-09T03:34:28.309Z,99.99
2018-02-09T03:35:28.037Z,99.98
2018-02-09T03:36:28.270Z,99.69
2018-02-09T03:37:28.251Z,99.99
2018-02-09T03:38:27.980Z,99.99
2018-02-09T03:39:28.215Z,99.99
2018-02-09T03:40:28.192Z,99.99
2018-02-09T03:41:28.173Z,99.99
2018-02-09T03:42:28.154Z,99.98
2018-02-09T03:43:28.134Z,99.99
2018-02-09T03:44:28.125Z,99.99
2018-02-09T03:45:27.841Z,99.98
2018-02-09T03:46:28.073Z,99.99
2018-02-09T03:47:28.055Z,99.98
2018-02-09T03:48:27.783Z,99.99
2018-02-09T03:49:27.765Z,99.99
2018-02-09T03:50:27.996Z,99.99
2018-02-09T03:51:28.042Z,99.99
2018-02-09T03:52:27.964Z,99.99
2018-02-09T03:53:27.687Z,99.99
2018-02-09T03:54:27.922Z,99.99
2018-02-09T03:55:27.645Z,99.79
2018-02-09T03:56:27.879Z,99.99
2018-02-09T03:57:27.607Z,99.99
2018-02-09T03:58:27.850Z,99.99
2018-02-09T03:59:27.818Z,99.99
2018-02-09T04:00:27.546Z,99.99
2018-02-09T04:01:27.528Z,99.99
2018-02-09T04:02:27.506Z,99.99
2018-02-09T04:03:27.740Z,99.99
2018-02-09T04:04:27.468Z,99.99
2018-02-09T04:05:27.701Z,99.99
2018-02-09T04:06:27.430Z,99.99
2018-02-09T04:07:27.409Z,99.99
2018-02-09T04:08:27.646Z,99.99
2018-02-09T04:09:27.622Z,99.99
2018-02-09T04:10:27.608Z,99.99
2018-02-09T04:11:27.329Z,99.99
2018-02-09T04:12:27.564Z,99.99
2018-02-09T04:13:27.543Z,99.99
2018-02-09T04:14:27.271Z,99.99
2018-02-09T04:15:27.252Z,99.99
2018-02-09T04:16:27.232Z,99.99
2018-02-09T04:17:27.470Z,99.99
2018-02-09T04:18:27.192Z,99.99
2018-02-09T04:19:27.172Z,99.99
2018-02-09T04:20:27.154Z,99.99
2018-02-09T04:21:27.133Z,99.99
2018-02-09T04:22:27.116Z,99.99
2018-02-09T04:23:27.350Z,99.99
2018-02-09T04:24:27.074Z,99.99
2018-02-09T04:25:27.308Z,99.99
2018-02-09T04:26:27.287Z,99.84
2018-02-09T04:27:27.269Z,99.99
2018-02-09T04:28:27.251Z,99.99
2018-02-09T04:29:27.232Z,99.99
2018-02-09T04:30:27.215Z,99.65
2018-02-09T04:31:26.942Z,99.84
2018-02-09T04:32:26.919Z,99.74
2018-02-09T04:33:26.902Z,99.84
2018-02-09T04:34:26.883Z,99.84
2018-02-09T04:35:27.118Z,99.65
2018-02-09T04:36:26.847Z,99.37
2018-02-09T04:37:27.075Z,99.65
2018-02-09T04:38:27.058Z,99.08
2018-02-09T04:39:26.785Z,99.46
2018-02-09T04:40:27.023Z,99.37
2018-02-09T04:41:26.998Z,99.46
2018-02-09T04:42:26.985Z,98.9
2018-02-09T04:43:26.964Z,98.9
2018-02-09T04:44:26.944Z,99.27
2018-02-09T04:45:26.670Z,99.08
2018-02-09T04:46:26.653Z,98.9
2018-02-09T04:47:26.889Z,98.94
2018-02-09T04:48:26.613Z,98.47
2018-02-09T04:49:26.847Z,98.47
2018-02-09T04:50:26.841Z,98.19
2018-02-09T04:51:26.808Z,98.19
2018-02-09T04:52:26.539Z,98.28
2018-02-09T04:53:26.519Z,98.47
2018-02-09T04:54:26.754Z,97.43
2018-02-09T04:55:26.733Z,97.43
2018-02-09T04:56:26.715Z,97.72
2018-02-09T04:57:26.442Z,97.91
2018-02-09T04:58:26.423Z,97.53
2018-02-09T04:59:26.669Z,97.43
2018-02-09T05:00:26.639Z,97.05
2018-02-09T05:01:26.366Z,97.43
2018-02-09T05:02:26.605Z,96.49
2018-02-09T05:03:26.584Z,96.58
2018-02-09T05:04:26.567Z,96.49
2018-02-09T05:05:26.292Z,96.49
2018-02-09T05:06:26.274Z,96.58
2018-02-09T05:07:26.510Z,96.39
2018-02-09T05:08:26.239Z,96.68
2018-02-09T05:09:26.470Z,96.35
2018-02-09T05:10:26.455Z,96.35
2018-02-09T05:11:26.438Z,95.97
2018-02-09T05:12:26.419Z,95.97
2018-02-09T05:13:26.401Z,95.97
2018-02-09T05:14:26.385Z,95.59
2018-02-09T05:15:26.364Z,95.4
2018-02-09T05:16:26.343Z,95.5
2018-02-09T05:17:26.328Z,94.74
2018-02-09T05:18:26.307Z,94.46
2018-02-09T05:19:26.038Z,94.74
2018-02-09T05:20:26.274Z,94.46
2018-02-09T05:21:26.259Z,95.03
2018-02-09T05:22:26.235Z,94.08
2018-02-09T05:23:26.217Z,94.37
2018-02-09T05:24:25.948Z,93.99
2018-02-09T05:25:26.184Z,94.56
2018-02-09T05:26:26.165Z,93.42
2018-02-09T05:27:26.148Z,93.61
2018-02-09T05:28:26.126Z,93.99
2018-02-09T05:29:26.108Z,93.42
2018-02-09T05:30:26.090Z,93.61
2018-02-09T05:31:26.075Z,93.84
2018-02-09T05:32:26.058Z,93.47
2018-02-09T05:33:26.039Z,93.75
2018-02-09T05:34:26.020Z,93.84
2018-02-09T05:35:26.005Z,92.8
2018-02-09T05:36:25.983Z,92.99
2018-02-09T05:37:25.969Z,93.09
2018-02-09T05:38:25.961Z,93.09
2018-02-09T05:39:25.931Z,93.18
2018-02-09T05:40:25.916Z,93.09
2018-02-09T05:41:25.899Z,92.99
2018-02-09T05:42:25.876Z,92.71
2018-02-09T05:43:25.861Z,92.99
2018-02-09T05:44:25.844Z,92.9
2018-02-09T05:45:25.824Z,92.33
2018-02-09T05:46:25.559Z,92.24
2018-02-09T05:47:25.792Z,91.67
2018-02-09T05:48:25.775Z,91.58
2018-02-09T05:49:25.503Z,91.77
2018-02-09T05:50:25.739Z,91.1
2018-02-09T05:51:25.721Z,92.43
2018-02-09T05:52:25.705Z,92.05
2018-02-09T05:53:25.432Z,92.05
2018-02-09T05:54:25.669Z,92.24
2018-02-09T05:55:25.652Z,92.33
2018-02-09T05:56:25.630Z,91.77
2018-02-09T05:57:25.616Z,92.24
2018-02-09T05:58:25.597Z,91.77
2018-02-09T05:59:25.581Z,91.67
2018-02-09T06:00:25.564Z,91.29
2018-02-09T06:01:25.546Z,91.58
2018-02-09T06:02:25.531Z,91.39
2018-02-09T06:03:25.511Z,91.39
2018-02-09T06:04:25.496Z,91.58
2018-02-09T06:05:25.481Z,91.77
2018-02-09T06:06:25.463Z,91.67
2018-02-09T06:07:25.192Z,91.77
2018-02-09T06:08:25.459Z,91.48
2018-02-09T06:09:25.160Z,91.58
2018-02-09T06:10:25.648Z,91.67
2018-02-09T06:11:25.376Z,91.39
2018-02-09T06:12:25.357Z,91.58
2018-02-09T06:13:25.341Z,91.77
2018-02-09T06:14:25.324Z,91.29
2018-02-09T06:15:25.305Z,91.53
2018-02-09T06:16:25.292Z,91.53
2018-02-09T06:17:25.272Z,91.81
2018-02-09T06:18:25.258Z,91.62
2018-02-09T06:19:24.989Z,91.72
2018-02-09T06:20:25.222Z,90.86
2018-02-09T06:21:24.950Z,91.24
2018-02-09T06:22:25.187Z,91.43
2018-02-09T06:23:25.171Z,91.24
2018-02-09T06:24:25.158Z,91.43
2018-02-09T06:25:25.143Z,91.43
2018-02-09T06:26:25.116Z,91.34
2018-02-09T06:27:25.103Z,91.24
2018-02-09T06:28:24.833Z,91.24
2018-02-09T06:29:25.067Z,91.43
2018-02-09T06:30:25.052Z,91.15
2018-02-09T06:31:25.032Z,90.77
2018-02-09T06:32:25.014Z,90.49
2018-02-09T06:33:24.745Z,90.86
2018-02-09T06:34:24.984Z,90.77
2018-02-09T06:35:24.972Z,91.05
2018-02-09T06:36:24.947Z,91.43
2018-02-09T06:37:24.934Z,91.15
2018-02-09T06:38:24.915Z,91.53
2018-02-09T06:39:24.897Z,91.53
2018-02-09T06:40:24.878Z,91.53
2018-02-09T06:41:25.115Z,91.34
2018-02-09T06:42:24.595Z,91.24
2018-02-09T06:43:24.831Z,91.15
2018-02-09T06:44:24.567Z,91.43
2018-02-09T06:45:24.795Z,91.24
2018-02-09T06:46:24.786Z,91.05
2018-02-09T06:47:24.835Z,90.77
2018-02-09T06:48:24.745Z,90.58
2018-02-09T06:49:24.724Z,90.77
2018-02-09T06:50:24.713Z,90.77
2018-02-09T06:51:24.697Z,90.68
2018-02-09T06:52:24.677Z,91.24
2018-02-09T06:53:24.664Z,91.34
2018-02-09T06:54:24.644Z,91.05
2018-02-09T06:55:24.627Z,90.86
2018-02-09T06:56:24.357Z,91.43
2018-02-09T06:57:24.595Z,91.43
2018-02-09T06:58:24.575Z,91.34
2018-02-09T06:59:24.559Z,91.24
2018-02-09T07:00:24.540Z,91.43
2018-02-09T07:01:24.527Z,90.77
2018-02-09T07:02:24.505Z,91.34
2018-02-09T07:03:24.490Z,90.86
2018-02-09T07:04:24.473Z,91.15
2018-02-09T07:05:24.459Z,91.34
2018-02-09T07:06:24.188Z,91.24
2018-02-09T07:07:24.421Z,91.24
2018-02-09T07:08:24.407Z,91.15
2018-02-09T07:09:24.390Z,90.58
2018-02-09T07:10:24.118Z,90.68
2018-02-09T07:11:39.017Z,90.68
2018-02-09T07:12:24.346Z,90.86
2018-02-09T07:13:24.323Z,90.3
2018-02-09T07:14:24.052Z,90.49
2018-02-09T07:15:24.346Z,90.39
2018-02-09T07:16:24.269Z,90.49
2018-02-09T07:17:24.006Z,90.49
2018-02-09T07:18:24.261Z,90.49
2018-02-09T07:19:24.225Z,90.2
2018-02-09T07:20:23.950Z,90.2
2018-02-09T07:21:23.934Z,90.86
2018-02-09T07:22:24.176Z,90.58
2018-02-09T07:23:24.153Z,90.77
2018-02-09T07:24:24.136Z,90.58
2018-02-09T07:25:23.868Z,90.91
2018-02-09T07:26:24.111Z,90.63
2018-02-09T07:27:23.836Z,90.34
2018-02-09T07:28:24.070Z,90.44
2018-02-09T07:29:24.058Z,90.34
2018-02-09T07:30:23.786Z,90.34
2018-02-09T07:31:24.024Z,90.16
2018-02-09T07:32:23.752Z,90.06
2018-02-09T07:33:23.992Z,90.16
2018-02-09T07:34:23.973Z,90.06
2018-02-09T07:35:23.960Z,90.25
2018-02-09T07:36:23.938Z,89.97
2018-02-09T07:37:23.928Z,89.5
2018-02-09T07:38:23.911Z,89.59
2018-02-09T07:39:23.639Z,89.5
2018-02-09T07:40:23.877Z,89.78
2018-02-09T07:41:23.863Z,89.87
2018-02-09T07:42:23.596Z,89.97
2018-02-09T07:43:23.827Z,89.69
2018-02-09T07:44:23.811Z,89.97
2018-02-09T07:45:23.803Z,89.87
2018-02-09T07:46:23.792Z,89.59
2018-02-09T07:47:23.512Z,89.87
2018-02-09T07:48:23.748Z,89.87
2018-02-09T07:49:23.787Z,89.69
2018-02-09T07:50:23.463Z,89.69
2018-02-09T07:51:23.701Z,89.4
2018-02-09T07:52:23.683Z,89.78
2018-02-09T07:53:23.415Z,89.5
2018-02-09T07:54:23.651Z,89.78
2018-02-09T07:55:23.635Z,89.5
2018-02-09T07:56:23.622Z,89.59
2018-02-09T07:57:23.606Z,89.35
2018-02-09T07:58:23.340Z,89.06
2018-02-09T07:59:23.573Z,89.06
2018-02-09T08:00:23.561Z,89.16
2018-02-09T08:01:23.541Z,88.87
2018-02-09T08:02:23.274Z,88.59
2018-02-09T08:03:23.544Z,88.4
2018-02-09T08:04:23.242Z,88.49
2018-02-09T08:05:23.226Z,88.21
2018-02-09T08:06:23.464Z,88.12
2018-02-09T08:07:23.447Z,87.55
2018-02-09T08:08:23.434Z,87.93
2018-02-09T08:09:23.416Z,88.49
2018-02-09T08:10:23.403Z,88.68
2018-02-09T08:11:23.389Z,88.68
2018-02-09T08:12:23.377Z,88.68
2018-02-09T08:13:23.108Z,88.49
2018-02-09T08:14:23.338Z,88.68
2018-02-09T08:15:23.360Z,88.49
2018-02-09T08:16:23.057Z,88.59
2018-02-09T08:17:23.296Z,88.59
2018-02-09T08:18:23.297Z,88.59
2018-02-09T08:19:23.266Z,88.68
2018-02-09T08:20:23.253Z,88.68
2018-02-09T08:21:23.231Z,88.4
2018-02-09T08:22:23.219Z,88.49
2018-02-09T08:23:23.203Z,88.78
2018-02-09T08:24:23.229Z,88.49
2018-02-09T08:25:22.921Z,88.59
2018-02-09T08:26:22.904Z,88.21
2018-02-09T08:27:23.141Z,88.31
2018-02-09T08:28:23.128Z,88.21
2018-02-09T08:29:23.111Z,88.21
2018-02-09T08:30:23.100Z,88.49
2018-02-09T08:31:22.833Z,88.02
2018-02-09T08:32:23.068Z,88.21
2018-02-09T08:33:23.052Z,88.02
2018-02-09T08:34:23.040Z,88.31
2018-02-09T08:35:22.773Z,88.78
2018-02-09T08:36:23.012Z,88.49
2018-02-09T08:37:23.003Z,88.31
2018-02-09T08:38:22.726Z,88.31
2018-02-09T08:39:22.964Z,88.21
2018-02-09T08:40:22.697Z,88.31
2018-02-09T08:41:22.933Z,89.06
2018-02-09T08:42:22.939Z,88.87
2018-02-09T08:43:22.909Z,89.16
2018-02-09T08:44:22.642Z,89.06
2018-02-09T08:45:22.879Z,89.35
2018-02-09T08:46:22.868Z,89.44
2018-02-09T08:47:22.604Z,89.63
2018-02-09T08:48:22.851Z,89.35
2018-02-09T08:49:22.827Z,89.54
2018-02-09T08:50:22.808Z,89.82
2018-02-09T08:51:22.788Z,90.11
2018-02-09T08:52:22.523Z,89.82
2018-02-09T08:53:22.775Z,90.01
2018-02-09T08:54:22.748Z,89.82
2018-02-09T08:55:22.733Z,89.73
2018-02-09T08:56:22.467Z,90.11
2018-02-09T08:57:22.700Z,90.01
2018-02-09T08:58:22.697Z,90.3
2018-02-09T08:59:22.422Z,90.67
2018-02-09T09:00:22.658Z,90.48
2018-02-09T09:01:22.683Z,90.2
2018-02-09T09:02:22.630Z,90.39
2018-02-09T09:03:22.360Z,90.39
2018-02-09T09:04:22.606Z,90.48
2018-02-09T09:05:22.590Z,90.48
2018-02-09T09:06:22.572Z,90.48
2018-02-09T09:07:22.615Z,90.48
2018-02-09T09:08:22.541Z,90.58
2018-02-09T09:09:22.275Z,90.3
2018-02-09T09:10:22.512Z,90.2
2018-02-09T09:11:22.499Z,90.39
2018-02-09T09:12:22.481Z,90.01
2018-02-09T09:13:22.469Z,90.39
2018-02-09T09:14:22.204Z,90.2
2018-02-09T09:15:22.189Z,90.58
2018-02-09T09:16:22.426Z,89.92
2018-02-09T09:17:22.413Z,90.2
2018-02-09T09:18:22.398Z,90.2
2018-02-09T09:19:22.437Z,90.48
2018-02-09T09:20:22.370Z,90.39
2018-02-09T09:21:22.372Z,90.48
2018-02-09T09:22:22.339Z,90.67
2018-02-09T09:23:22.327Z,90.39
2018-02-09T09:24:22.313Z,90.58
2018-02-09T09:25:22.045Z,90.2
2018-02-09T09:26:22.282Z,90.3
2018-02-09T09:27:22.274Z,90.01
2018-02-09T09:28:22.277Z,90.11
2018-02-09T09:29:21.985Z,90.3
2018-02-09T09:30:21.968Z,90.11
2018-02-09T09:31:22.209Z,90.11
2018-02-09T09:32:22.199Z,90.67
2018-02-09T09:33:22.176Z,90.67
2018-02-09T09:34:22.226Z,90.77
2018-02-09T09:35:22.147Z,90.67
2018-02-09T09:36:22.133Z,90.3
2018-02-09T09:37:22.120Z,90.48
2018-02-09T09:38:22.112Z,90.11
2018-02-09T09:39:21.837Z,90.39
2018-02-09T09:40:22.078Z,90.11
2018-02-09T09:41:21.809Z,89.82
2018-02-09T09:42:22.049Z,90.11
2018-02-09T09:43:22.029Z,89.44
2018-02-09T09:44:21.762Z,89.92
2018-02-09T09:45:22.004Z,89.82
2018-02-09T09:46:22.036Z,90.01
2018-02-09T09:47:21.730Z,89.82
2018-02-09T09:48:21.954Z,89.82
2018-02-09T09:49:21.690Z,89.82
2018-02-09T09:50:21.932Z,89.73
2018-02-09T09:51:21.919Z,89.63
2018-02-09T09:52:21.900Z,89.92
2018-02-09T09:53:21.888Z,89.73
2018-02-09T09:54:21.867Z,89.25
2018-02-09T09:55:21.856Z,89.16
2018-02-09T09:56:21.842Z,88.59
2018-02-09T09:57:21.834Z,88.21
2018-02-09T09:58:36.473Z,88.4
2018-02-09T09:59:21.793Z,88.4
2018-02-09T10:00:21.780Z,88.59
2018-02-09T10:01:21.514Z,88.4
2018-02-09T10:02:21.497Z,88.97
2018-02-09T10:03:21.742Z,88.87
2018-02-09T10:04:21.972Z,88.97
2018-02-09T10:05:21.452Z,88.4
2018-02-09T10:06:21.693Z,88.59
2018-02-09T10:07:21.682Z,88.02
2018-02-09T10:08:21.673Z,88.31
2018-02-09T10:09:21.648Z,87.93
2018-02-09T10:10:21.633Z,87.93
2018-02-09T10:11:21.625Z,88.07
2018-02-09T10:12:21.604Z,88.45
2018-02-09T10:13:21.598Z,88.54
2018-02-09T10:14:21.576Z,88.64
2018-02-09T10:15:21.564Z,88.54
2018-02-09T10:16:21.549Z,88.54
2018-02-09T10:17:21.527Z,88.26
2018-02-09T10:18:21.526Z,87.84
2018-02-09T10:19:21.500Z,87.4
2018-02-09T10:20:21.494Z,87.12
2018-02-09T10:21:21.219Z,87.4
2018-02-09T10:22:21.511Z,87.02
2018-02-09T10:23:21.440Z,87.12
2018-02-09T10:24:21.429Z,87.4
2018-02-09T10:25:21.414Z,87.21
2018-02-09T10:26:21.398Z,86.55
2018-02-09T10:27:21.389Z,86.27
2018-02-09T10:29:21.100Z,85.8
2018-02-09T10:30:21.341Z,85.99
2018-02-09T10:31:21.074Z,85.61
2018-02-09T10:32:21.312Z,85.8
2018-02-09T10:33:21.299Z,85.61
2018-02-09T10:34:21.287Z,85.04
2018-02-09T10:35:21.271Z,85.13
2018-02-09T10:36:21.257Z,84.09
2018-02-09T10:37:21.256Z,84.56
2018-02-09T10:38:21.224Z,85.04
2018-02-09T10:39:21.209Z,84.47
2018-02-09T10:40:21.197Z,84.38
2018-02-09T10:41:21.184Z,84.28
2018-02-09T10:42:21.171Z,85.13
2018-02-09T10:43:21.162Z,84.66
2018-02-09T10:44:21.137Z,84.94
2018-02-09T10:45:20.872Z,84.94
2018-02-09T10:46:21.116Z,84.85
2018-02-09T10:47:21.095Z,84.85
2018-02-09T10:48:20.842Z,84.47
2018-02-09T10:49:21.075Z,84.94
2018-02-09T10:50:21.055Z,84.51
2018-02-09T10:51:21.052Z,83.85
2018-02-09T10:52:20.772Z,82.62
2018-02-09T10:53:21.011Z,82.52
2018-02-09T10:54:20.998Z,82.52
2018-02-09T10:55:20.996Z,81.99
2018-02-09T10:56:20.973Z,82.09
2018-02-09T10:57:20.960Z,81.62
2018-02-09T10:58:21.001Z,81.14
2018-02-09T10:59:20.929Z,80.1
2018-02-09T11:00:35.582Z,79.85
2018-02-09T11:01:20.952Z,79.19
2018-02-09T11:02:20.641Z,78.81
2018-02-09T11:03:20.887Z,79.47
2018-02-09T11:04:20.876Z,79.1
2018-02-09T11:05:20.854Z,78.81
2018-02-09T11:06:20.842Z,78.05
2018-02-09T11:07:20.576Z,77.33
2018-02-09T11:08:20.827Z,76.76
2018-02-09T11:09:20.805Z,76.29
2018-02-09T11:10:20.537Z,75.72
2018-02-09T11:11:20.777Z,74.87
2018-02-09T11:12:20.765Z,74.68
2018-02-09T11:13:20.762Z,74.49
2018-02-09T11:14:20.758Z,75.15
2018-02-09T11:15:20.478Z,74.77
2018-02-09T11:16:20.718Z,74.96
2018-02-09T11:17:20.754Z,74.39
2018-02-09T11:18:20.446Z,74.2
2018-02-09T11:19:20.430Z,73.29
2018-02-09T11:20:20.421Z,73.29
2018-02-09T11:21:20.406Z,72.63
2018-02-09T11:22:20.395Z,72.53
2018-02-09T11:23:20.638Z,72.25
2018-02-09T11:24:20.630Z,72.34
2018-02-09T11:25:20.359Z,71.86
2018-02-09T11:26:20.603Z,71.39
2018-02-09T11:27:20.599Z,71.01
2018-02-09T11:28:20.585Z,70.63
2018-02-09T11:29:20.315Z,70.25
2018-02-09T11:30:20.557Z,70.25
2018-02-09T11:31:20.549Z,70.15
2018-02-09T11:32:20.535Z,70.06
2018-02-09T11:33:20.524Z,70.15
2018-02-09T11:34:20.513Z,70.15
2018-02-09T11:35:20.505Z,70.15
2018-02-09T11:36:20.486Z,70.54
2018-02-09T11:37:20.475Z,70.35
2018-02-09T11:38:20.471Z,69.96
2018-02-09T11:39:20.457Z,69.68
2018-02-09T11:40:20.445Z,69.49
2018-02-09T11:41:20.441Z,69.49
2018-02-09T11:42:20.422Z,69.59
2018-02-09T11:43:20.412Z,69.59
2018-02-09T11:44:20.147Z,69.96
2018-02-09T11:45:20.390Z,69.96
2018-02-09T11:46:20.378Z,70.25
2018-02-09T11:47:20.369Z,69.78
2018-02-09T11:48:20.353Z,69.81
2018-02-09T11:49:20.343Z,69.34
2018-02-09T11:50:20.337Z,68.67
2018-02-09T11:51:20.323Z,68.86
2018-02-09T11:52:20.319Z,68.77
2018-02-09T11:53:20.308Z,68.1
2018-02-09T11:54:20.288Z,68.54
2018-02-09T11:55:20.347Z,68.73
2018-02-09T11:56:20.266Z,68.92
2018-02-09T11:57:20.263Z,68.44
2018-02-09T11:58:20.241Z,69.3
2018-02-09T11:59:20.234Z,69.68
2018-02-09T12:00:20.219Z,69.59
2018-02-09T12:01:20.207Z,69.59
2018-02-09T12:02:20.195Z,69.87
2018-02-09T12:03:20.202Z,70.15
2018-02-09T12:04:20.177Z,69.87
2018-02-09T12:05:20.160Z,69.68
2018-02-09T12:06:20.150Z,70.06
2018-02-09T12:07:20.145Z,70.15
2018-02-09T12:08:19.876Z,69.96
2018-02-09T12:09:20.150Z,69.68
2018-02-09T12:10:20.105Z,69.46
2018-02-09T12:11:20.091Z,70.4
2018-02-09T12:12:20.083Z,70.4
2018-02-09T12:13:20.076Z,70.69
2018-02-09T12:14:20.059Z,70.5
2018-02-09T12:15:20.047Z,70.98
2018-02-09T12:16:20.042Z,71.26
2018-02-09T12:17:20.022Z,70.5
2018-02-09T12:18:20.008Z,70.21
2018-02-09T12:19:19.997Z,70.21
2018-02-09T12:20:19.986Z,70.31
2018-02-09T12:21:19.973Z,70.21
2018-02-09T12:22:19.965Z,70.31
2018-02-09T12:23:19.953Z,70.78
2018-02-09T12:24:19.686Z,70.69
2018-02-09T12:25:19.678Z,70.78
2018-02-09T12:27:19.649Z,70.69
2018-02-09T12:28:19.894Z,70.12
2018-02-09T12:29:19.887Z,70.03
2018-02-09T12:30:19.615Z,70.12
2018-02-09T12:31:19.854Z,70.12
2018-02-09T12:32:19.853Z,70.4
2018-02-09T12:33:19.833Z,69.93
2018-02-09T12:34:19.820Z,69.93
2018-02-09T12:35:19.807Z,70.31
2018-02-09T12:36:19.552Z,70.59
2018-02-09T12:37:19.788Z,70.31
2018-02-09T12:38:19.777Z,70.98
2018-02-09T12:39:19.760Z,71.17
2018-02-09T12:40:19.752Z,71.55
2018-02-09T12:41:19.735Z,71.45
2018-02-09T12:42:19.724Z,71.36
2018-02-09T12:44:19.710Z,71.45
2018-02-09T12:45:19.688Z,71.45
2018-02-09T12:46:19.673Z,71.73
2018-02-09T12:47:19.409Z,71.17
2018-02-09T12:48:19.650Z,70.78
2018-02-09T12:49:19.640Z,70.78
2018-02-09T12:50:19.634Z,70.88
2018-02-09T12:51:19.612Z,70.98
2018-02-09T12:52:19.608Z,70.98
2018-02-09T12:53:19.337Z,71.17
2018-02-09T12:54:19.578Z,71.55
2018-02-09T12:55:19.574Z,71.45
2018-02-09T12:56:19.559Z,71.45
2018-02-09T12:57:19.544Z,71.55